sensor_id;sensor_type;location;lat;lon;timestamp;P1;durP1;ratioP1;P2;durP2;ratioP2
1402;SDS011;696;48.546;9.896;2022-08-11T00:01:19;1.10;;;0.85;;
1402;SDS011;696;48.546;9.896;2022-08-11T00:03:49;2.50;;;1.20;;
1402;SDS011;696;48.546;9.896;2022-08-11T00:06:28;1.40;;;1.30;;
1402;SDS011;696;48.546;9.896;2022-08-11T00:08:56;5.15;;;1.65;;
1402;SDS011;696;48.546;9.896;2022-08-11T00:11:30;2.40;;;1.15;;
1402;SDS011;696;48.546;9.896;2022-08-11T00:13:57;1.10;;;1.02;;
1402;SDS011;696;48.546;9.896;2022-08-11T00:16:24;2.55;;;1.52;;
1402;SDS011;696;48.546;9.896;2022-08-11T00:18:53;1.75;;;1.13;;
1402;SDS011;696;48.546;9.896;2022-08-11T00:21:21;1.20;;;1.02;;
1402;SDS011;696;48.546;9.896;2022-08-11T00:23:55;1.90;;;1.10;;
1402;SDS011;696;48.546;9.896;2022-08-11T00:26:22;2.53;;;1.13;;
1402;SDS011;696;48.546;9.896;2022-08-11T00:28:49;1.42;;;1.33;;
1402;SDS011;696;48.546;9.896;2022-08-11T00:31:27;1.02;;;0.95;;
1402;SDS011;696;48.546;9.896;2022-08-11T00:33:54;2.22;;;0.90;;
1402;SDS011;696;48.546;9.896;2022-08-11T00:36:22;1.40;;;1.30;;
1402;SDS011;696;48.546;9.896;2022-08-11T00:38:51;1.60;;;1.15;;
1402;SDS011;696;48.546;9.896;2022-08-11T00:41:19;2.33;;;1.40;;
1402;SDS011;696;48.546;9.896;2022-08-11T01:15:04;2.53;;;1.42;;
1402;SDS011;696;48.546;9.896;2022-08-11T01:23:34;2.90;;;1.58;;
1402;SDS011;696;48.546;9.896;2022-08-11T01:26:16;1.27;;;0.93;;
1402;SDS011;696;48.546;9.896;2022-08-11T01:43:21;3.33;;;1.67;;
1402;SDS011;696;48.546;9.896;2022-08-11T01:47:12;2.63;;;1.35;;
1402;SDS011;696;48.546;9.896;2022-08-11T01:52:08;9.68;;;1.52;;
1402;SDS011;696;48.546;9.896;2022-08-11T01:57:30;2.05;;;1.42;;
1402;SDS011;696;48.546;9.896;2022-08-11T02:00:18;2.03;;;1.58;;
1402;SDS011;696;48.546;9.896;2022-08-11T02:02:47;1.55;;;1.30;;
1402;SDS011;696;48.546;9.896;2022-08-11T02:11:08;2.08;;;1.83;;
1402;SDS011;696;48.546;9.896;2022-08-11T02:16:25;1.30;;;1.20;;
1402;SDS011;696;48.546;9.896;2022-08-11T02:19:19;2.13;;;1.55;;
1402;SDS011;696;48.546;9.896;2022-08-11T02:22:19;2.97;;;1.60;;
1402;SDS011;696;48.546;9.896;2022-08-11T02:31:02;1.58;;;1.40;;
1402;SDS011;696;48.546;9.896;2022-08-11T02:33:53;3.30;;;1.93;;
1402;SDS011;696;48.546;9.896;2022-08-11T02:36:31;2.83;;;1.45;;
1402;SDS011;696;48.546;9.896;2022-08-11T02:39:06;2.63;;;1.92;;
1402;SDS011;696;48.546;9.896;2022-08-11T02:41:41;2.67;;;1.50;;
1402;SDS011;696;48.546;9.896;2022-08-11T02:44:31;2.58;;;1.60;;
1402;SDS011;696;48.546;9.896;2022-08-11T02:47:06;2.42;;;1.35;;
1402;SDS011;696;48.546;9.896;2022-08-11T02:52:33;2.08;;;1.55;;
1402;SDS011;696;48.546;9.896;2022-08-11T03:01:06;4.30;;;1.85;;
1402;SDS011;696;48.546;9.896;2022-08-11T03:03:47;2.63;;;1.70;;
1402;SDS011;696;48.546;9.896;2022-08-11T03:17:46;2.40;;;1.58;;
1402;SDS011;696;48.546;9.896;2022-08-11T03:20:37;2.72;;;1.50;;
1402;SDS011;696;48.546;9.896;2022-08-11T03:23:34;2.85;;;1.45;;
1402;SDS011;696;48.546;9.896;2022-08-11T03:26:27;1.30;;;1.20;;
1402;SDS011;696;48.546;9.896;2022-08-11T03:29:03;4.93;;;2.03;;
1402;SDS011;696;48.546;9.896;2022-08-11T03:34:22;1.80;;;1.58;;
1402;SDS011;696;48.546;9.896;2022-08-11T03:45:27;2.22;;;1.95;;
1402;SDS011;696;48.546;9.896;2022-08-11T03:48:17;4.53;;;1.38;;
1402;SDS011;696;48.546;9.896;2022-08-11T03:53:47;3.38;;;1.35;;
1402;SDS011;696;48.546;9.896;2022-08-11T04:35:38;3.83;;;1.83;;
1402;SDS011;696;48.546;9.896;2022-08-11T04:49:24;3.58;;;1.70;;
1402;SDS011;696;48.546;9.896;2022-08-11T04:58:47;2.10;;;1.45;;
1402;SDS011;696;48.546;9.896;2022-08-11T05:13:47;3.10;;;2.28;;
1402;SDS011;696;48.546;9.896;2022-08-11T05:16:42;2.13;;;1.83;;
1402;SDS011;696;48.546;9.896;2022-08-11T05:19:32;3.58;;;2.00;;
1402;SDS011;696;48.546;9.896;2022-08-11T05:22:16;3.95;;;1.90;;
1402;SDS011;696;48.546;9.896;2022-08-11T05:27:59;2.85;;;2.38;;
1402;SDS011;696;48.546;9.896;2022-08-11T05:30:48;3.08;;;1.52;;
1402;SDS011;696;48.546;9.896;2022-08-11T05:33:48;2.35;;;2.00;;
1402;SDS011;696;48.546;9.896;2022-08-11T05:36:39;2.38;;;1.80;;
1402;SDS011;696;48.546;9.896;2022-08-11T05:39:12;2.20;;;1.55;;
1402;SDS011;696;48.546;9.896;2022-08-11T05:41:58;8.15;;;2.13;;
1402;SDS011;696;48.546;9.896;2022-08-11T05:44:46;8.00;;;1.83;;
1402;SDS011;696;48.546;9.896;2022-08-11T05:47:30;1.95;;;1.70;;
1402;SDS011;696;48.546;9.896;2022-08-11T05:50:17;10.93;;;2.08;;
1402;SDS011;696;48.546;9.896;2022-08-11T05:53:02;5.00;;;2.00;;
1402;SDS011;696;48.546;9.896;2022-08-11T05:55:46;1.55;;;1.35;;
1402;SDS011;696;48.546;9.896;2022-08-11T05:58:33;3.60;;;1.67;;
1402;SDS011;696;48.546;9.896;2022-08-11T06:01:05;2.35;;;2.15;;
1402;SDS011;696;48.546;9.896;2022-08-11T06:03:31;1.77;;;1.67;;
1402;SDS011;696;48.546;9.896;2022-08-11T06:06:18;2.25;;;1.75;;
1402;SDS011;696;48.546;9.896;2022-08-11T06:08:45;2.50;;;1.75;;
1402;SDS011;696;48.546;9.896;2022-08-11T06:11:10;6.85;;;2.08;;
1402;SDS011;696;48.546;9.896;2022-08-11T06:13:40;4.75;;;1.67;;
1402;SDS011;696;48.546;9.896;2022-08-11T06:16:08;2.53;;;1.73;;
1402;SDS011;696;48.546;9.896;2022-08-11T06:18:34;6.30;;;1.38;;
1402;SDS011;696;48.546;9.896;2022-08-11T06:21:00;6.22;;;2.03;;
1402;SDS011;696;48.546;9.896;2022-08-11T06:23:29;2.75;;;1.50;;
1402;SDS011;696;48.546;9.896;2022-08-11T06:25:55;4.32;;;1.48;;
1402;SDS011;696;48.546;9.896;2022-08-11T06:28:32;1.15;;;1.05;;
1402;SDS011;696;48.546;9.896;2022-08-11T06:31:01;3.67;;;1.35;;
1402;SDS011;696;48.546;9.896;2022-08-11T06:33:36;1.83;;;1.40;;
1402;SDS011;696;48.546;9.896;2022-08-11T06:44:28;1.20;;;1.05;;
1402;SDS011;696;48.546;9.896;2022-08-11T06:47:02;1.42;;;1.00;;
1402;SDS011;696;48.546;9.896;2022-08-11T06:52:17;2.63;;;1.60;;
1402;SDS011;696;48.546;9.896;2022-08-11T06:54:47;3.72;;;1.88;;
1402;SDS011;696;48.546;9.896;2022-08-11T06:57:19;3.05;;;1.60;;
1402;SDS011;696;48.546;9.896;2022-08-11T07:00:03;2.35;;;1.40;;
1402;SDS011;696;48.546;9.896;2022-08-11T07:02:52;1.92;;;1.20;;
1402;SDS011;696;48.546;9.896;2022-08-11T07:05:30;1.65;;;1.20;;
1402;SDS011;696;48.546;9.896;2022-08-11T07:14:26;2.22;;;1.17;;
1402;SDS011;696;48.546;9.896;2022-08-11T07:17:22;2.20;;;1.63;;
1402;SDS011;696;48.546;9.896;2022-08-11T07:19:57;2.15;;;1.38;;
1402;SDS011;696;48.546;9.896;2022-08-11T07:25:27;0.80;;;0.80;;
1402;SDS011;696;48.546;9.896;2022-08-11T07:28:22;2.88;;;1.50;;
1402;SDS011;696;48.546;9.896;2022-08-11T07:34:44;2.40;;;1.30;;
1402;SDS011;696;48.546;9.896;2022-08-11T07:36:56;1.33;;;1.00;;
1402;SDS011;696;48.546;9.896;2022-08-11T07:39:25;1.75;;;1.30;;
1402;SDS011;696;48.546;9.896;2022-08-11T07:41:52;3.67;;;1.52;;
1402;SDS011;696;48.546;9.896;2022-08-11T07:44:18;1.00;;;0.90;;
1402;SDS011;696;48.546;9.896;2022-08-11T07:46:47;4.53;;;1.63;;
1402;SDS011;696;48.546;9.896;2022-08-11T07:49:34;1.75;;;1.58;;
1402;SDS011;696;48.546;9.896;2022-08-11T07:52:19;2.83;;;1.63;;
1402;SDS011;696;48.546;9.896;2022-08-11T07:54:55;1.42;;;1.13;;
1402;SDS011;696;48.546;9.896;2022-08-11T07:57:22;4.20;;;1.90;;
1402;SDS011;696;48.546;9.896;2022-08-11T08:00:06;2.42;;;1.40;;
1402;SDS011;696;48.546;9.896;2022-08-11T08:02:51;0.80;;;0.77;;
1402;SDS011;696;48.546;9.896;2022-08-11T08:05:35;1.25;;;1.15;;
1402;SDS011;696;48.546;9.896;2022-08-11T08:08:20;1.98;;;1.75;;
1402;SDS011;696;48.546;9.896;2022-08-11T08:11:04;1.58;;;1.20;;
1402;SDS011;696;48.546;9.896;2022-08-11T08:13:48;1.55;;;1.45;;
1402;SDS011;696;48.546;9.896;2022-08-11T08:16:32;2.05;;;1.10;;
1402;SDS011;696;48.546;9.896;2022-08-11T08:19:16;4.10;;;1.23;;
1402;SDS011;696;48.546;9.896;2022-08-11T08:21:45;1.25;;;0.98;;
1402;SDS011;696;48.546;9.896;2022-08-11T08:24:11;3.80;;;1.02;;
1402;SDS011;696;48.546;9.896;2022-08-11T08:26:37;1.52;;;1.05;;
1402;SDS011;696;48.546;9.896;2022-08-11T08:29:21;5.90;;;1.00;;
1402;SDS011;696;48.546;9.896;2022-08-11T08:32:06;0.90;;;0.90;;
1402;SDS011;696;48.546;9.896;2022-08-11T08:34:31;3.15;;;1.00;;
1402;SDS011;696;48.546;9.896;2022-08-11T08:36:57;6.28;;;1.23;;
1402;SDS011;696;48.546;9.896;2022-08-11T08:39:24;0.77;;;0.77;;
1402;SDS011;696;48.546;9.896;2022-08-11T08:41:51;0.80;;;0.80;;
1402;SDS011;696;48.546;9.896;2022-08-11T08:44:18;0.82;;;0.82;;
1402;SDS011;696;48.546;9.896;2022-08-11T08:46:47;3.55;;;1.23;;
1402;SDS011;696;48.546;9.896;2022-08-11T08:49:18;1.80;;;1.25;;
1402;SDS011;696;48.546;9.896;2022-08-11T08:51:48;2.72;;;1.10;;
1402;SDS011;696;48.546;9.896;2022-08-11T08:54:18;3.75;;;1.25;;
1402;SDS011;696;48.546;9.896;2022-08-11T08:56:45;1.73;;;1.20;;
1402;SDS011;696;48.546;9.896;2022-08-11T08:59:13;12.98;;;1.17;;
1402;SDS011;696;48.546;9.896;2022-08-11T09:01:45;2.05;;;1.17;;
1402;SDS011;696;48.546;9.896;2022-08-11T09:04:15;0.80;;;0.77;;
1402;SDS011;696;48.546;9.896;2022-08-11T09:06:42;1.55;;;0.90;;
1402;SDS011;696;48.546;9.896;2022-08-11T09:09:08;0.98;;;0.73;;
1402;SDS011;696;48.546;9.896;2022-08-11T09:11:34;3.78;;;1.10;;
1402;SDS011;696;48.546;9.896;2022-08-11T09:14:20;1.27;;;0.75;;
1402;SDS011;696;48.546;9.896;2022-08-11T09:17:21;1.65;;;0.75;;
1402;SDS011;696;48.546;9.896;2022-08-11T09:19:51;0.82;;;0.82;;
1402;SDS011;696;48.546;9.896;2022-08-11T09:22:24;5.93;;;1.02;;
1402;SDS011;696;48.546;9.896;2022-08-11T09:25:09;0.93;;;0.82;;
1402;SDS011;696;48.546;9.896;2022-08-11T09:27:54;1.02;;;0.85;;
1402;SDS011;696;48.546;9.896;2022-08-11T09:30:20;0.45;;;0.45;;
1402;SDS011;696;48.546;9.896;2022-08-11T09:32:50;3.40;;;1.08;;
1402;SDS011;696;48.546;9.896;2022-08-11T09:35:21;0.95;;;0.65;;
1402;SDS011;696;48.546;9.896;2022-08-11T09:37:51;0.65;;;0.65;;
1402;SDS011;696;48.546;9.896;2022-08-11T09:40:36;1.55;;;0.75;;
1402;SDS011;696;48.546;9.896;2022-08-11T09:43:03;0.90;;;0.75;;
1402;SDS011;696;48.546;9.896;2022-08-11T09:45:49;1.17;;;0.63;;
1402;SDS011;696;48.546;9.896;2022-08-11T09:48:20;1.27;;;0.65;;
1402;SDS011;696;48.546;9.896;2022-08-11T09:50:48;1.40;;;0.77;;
1402;SDS011;696;48.546;9.896;2022-08-11T09:53:15;3.35;;;0.77;;
1402;SDS011;696;48.546;9.896;2022-08-11T09:55:45;2.35;;;1.13;;
1402;SDS011;696;48.546;9.896;2022-08-11T09:58:11;2.05;;;1.27;;
1402;SDS011;696;48.546;9.896;2022-08-11T10:00:38;0.80;;;0.80;;
1402;SDS011;696;48.546;9.896;2022-08-11T10:03:25;2.10;;;0.95;;
1402;SDS011;696;48.546;9.896;2022-08-11T10:06:00;1.55;;;0.80;;
1402;SDS011;696;48.546;9.896;2022-08-11T10:08:46;2.55;;;1.25;;
1402;SDS011;696;48.546;9.896;2022-08-11T10:11:17;1.10;;;0.80;;
1402;SDS011;696;48.546;9.896;2022-08-11T10:13:45;3.90;;;0.90;;
1402;SDS011;696;48.546;9.896;2022-08-11T10:16:31;1.98;;;0.55;;
1402;SDS011;696;48.546;9.896;2022-08-11T10:18:59;0.70;;;0.60;;
1402;SDS011;696;48.546;9.896;2022-08-11T10:21:36;0.52;;;0.52;;
1402;SDS011;696;48.546;9.896;2022-08-11T10:24:02;1.05;;;0.95;;
1402;SDS011;696;48.546;9.896;2022-08-11T10:26:48;3.50;;;0.68;;
1402;SDS011;696;48.546;9.896;2022-08-11T10:29:18;0.65;;;0.50;;
1402;SDS011;696;48.546;9.896;2022-08-11T10:32:04;0.60;;;0.60;;
1402;SDS011;696;48.546;9.896;2022-08-11T10:35:02;1.58;;;0.60;;
1402;SDS011;696;48.546;9.896;2022-08-11T10:37:31;1.52;;;0.43;;
1402;SDS011;696;48.546;9.896;2022-08-11T10:40:01;2.33;;;0.75;;
1402;SDS011;696;48.546;9.896;2022-08-11T10:42:28;3.47;;;0.88;;
1402;SDS011;696;48.546;9.896;2022-08-11T10:45:12;0.50;;;0.50;;
1402;SDS011;696;48.546;9.896;2022-08-11T10:47:57;1.77;;;0.70;;
1402;SDS011;696;48.546;9.896;2022-08-11T10:50:23;1.20;;;0.88;;
1402;SDS011;696;48.546;9.896;2022-08-11T10:53:07;0.50;;;0.50;;
1402;SDS011;696;48.546;9.896;2022-08-11T10:55:51;1.08;;;0.63;;
1402;SDS011;696;48.546;9.896;2022-08-11T10:58:36;1.13;;;0.55;;
1402;SDS011;696;48.546;9.896;2022-08-11T11:01:20;3.10;;;0.73;;
1402;SDS011;696;48.546;9.896;2022-08-11T11:03:58;0.90;;;0.70;;
1402;SDS011;696;48.546;9.896;2022-08-11T11:12:08;0.70;;;0.60;;
1402;SDS011;696;48.546;9.896;2022-08-11T11:14:54;0.63;;;0.50;;
1402;SDS011;696;48.546;9.896;2022-08-11T11:17:42;0.93;;;0.57;;
1402;SDS011;696;48.546;9.896;2022-08-11T11:20:22;1.48;;;0.40;;
1402;SDS011;696;48.546;9.896;2022-08-11T11:22:50;0.80;;;0.40;;
1402;SDS011;696;48.546;9.896;2022-08-11T11:27:47;1.27;;;0.90;;
1402;SDS011;696;48.546;9.896;2022-08-11T11:30:16;0.70;;;0.60;;
1402;SDS011;696;48.546;9.896;2022-08-11T11:35:20;0.47;;;0.45;;
1402;SDS011;696;48.546;9.896;2022-08-11T11:37:56;0.55;;;0.55;;
1402;SDS011;696;48.546;9.896;2022-08-11T11:40:23;0.88;;;0.70;;
1402;SDS011;696;48.546;9.896;2022-08-11T11:42:50;1.10;;;0.68;;
1402;SDS011;696;48.546;9.896;2022-08-11T11:45:19;0.77;;;0.60;;
1402;SDS011;696;48.546;9.896;2022-08-11T11:47:46;2.78;;;0.70;;
1402;SDS011;696;48.546;9.896;2022-08-11T11:50:20;1.25;;;0.68;;
1402;SDS011;696;48.546;9.896;2022-08-11T11:52:47;0.55;;;0.35;;
1402;SDS011;696;48.546;9.896;2022-08-11T11:55:14;1.50;;;0.55;;
1402;SDS011;696;48.546;9.896;2022-08-11T11:57:40;3.20;;;1.00;;
1402;SDS011;696;48.546;9.896;2022-08-11T12:00:24;6.10;;;1.15;;
1402;SDS011;696;48.546;9.896;2022-08-11T12:03:09;1.10;;;0.73;;
1402;SDS011;696;48.546;9.896;2022-08-11T12:05:35;0.85;;;0.70;;
1402;SDS011;696;48.546;9.896;2022-08-11T12:08:02;0.50;;;0.45;;
1402;SDS011;696;48.546;9.896;2022-08-11T12:13:11;0.50;;;0.50;;
1402;SDS011;696;48.546;9.896;2022-08-11T12:15:55;2.28;;;0.98;;
1402;SDS011;696;48.546;9.896;2022-08-11T12:18:21;0.65;;;0.65;;
1402;SDS011;696;48.546;9.896;2022-08-11T12:20:47;2.85;;;0.73;;
1402;SDS011;696;48.546;9.896;2022-08-11T12:23:12;0.88;;;0.65;;
1402;SDS011;696;48.546;9.896;2022-08-11T12:25:58;0.40;;;0.40;;
1402;SDS011;696;48.546;9.896;2022-08-11T12:28:42;1.60;;;0.95;;
1402;SDS011;696;48.546;9.896;2022-08-11T12:31:09;1.02;;;0.52;;
1402;SDS011;696;48.546;9.896;2022-08-11T12:33:38;1.33;;;0.47;;
1402;SDS011;696;48.546;9.896;2022-08-11T12:36:05;1.90;;;0.90;;
1402;SDS011;696;48.546;9.896;2022-08-11T12:38:32;0.70;;;0.68;;
1402;SDS011;696;48.546;9.896;2022-08-11T12:40:59;1.73;;;0.52;;
1402;SDS011;696;48.546;9.896;2022-08-11T12:43:44;0.68;;;0.40;;
1402;SDS011;696;48.546;9.896;2022-08-11T12:46:30;0.40;;;0.40;;
1402;SDS011;696;48.546;9.896;2022-08-11T12:48:59;0.70;;;0.40;;
1402;SDS011;696;48.546;9.896;2022-08-11T12:51:52;0.82;;;0.45;;
1402;SDS011;696;48.546;9.896;2022-08-11T12:57:16;2.00;;;0.52;;
1402;SDS011;696;48.546;9.896;2022-08-11T13:00:06;1.58;;;0.77;;
1402;SDS011;696;48.546;9.896;2022-08-11T13:02:51;0.30;;;0.30;;
1402;SDS011;696;48.546;9.896;2022-08-11T13:05:36;0.40;;;0.40;;
1402;SDS011;696;48.546;9.896;2022-08-11T13:08:02;0.40;;;0.35;;
1402;SDS011;696;48.546;9.896;2022-08-11T13:10:29;0.17;;;0.17;;
1402;SDS011;696;48.546;9.896;2022-08-11T13:13:14;0.55;;;0.40;;
1402;SDS011;696;48.546;9.896;2022-08-11T13:15:44;0.70;;;0.45;;
1402;SDS011;696;48.546;9.896;2022-08-11T13:18:13;0.40;;;0.40;;
1402;SDS011;696;48.546;9.896;2022-08-11T13:20:40;0.57;;;0.40;;
1402;SDS011;696;48.546;9.896;2022-08-11T13:23:08;3.17;;;0.57;;
1402;SDS011;696;48.546;9.896;2022-08-11T13:25:37;1.30;;;0.50;;
1402;SDS011;696;48.546;9.896;2022-08-11T13:28:03;0.98;;;0.40;;
1402;SDS011;696;48.546;9.896;2022-08-11T13:30:29;0.45;;;0.30;;
1402;SDS011;696;48.546;9.896;2022-08-11T13:33:14;1.58;;;0.70;;
1402;SDS011;696;48.546;9.896;2022-08-11T13:35:41;0.40;;;0.40;;
1402;SDS011;696;48.546;9.896;2022-08-11T13:38:09;1.42;;;0.60;;
1402;SDS011;696;48.546;9.896;2022-08-11T13:40:37;3.45;;;1.02;;
1402;SDS011;696;48.546;9.896;2022-08-11T13:43:04;1.08;;;0.63;;
1402;SDS011;696;48.546;9.896;2022-08-11T13:45:30;0.75;;;0.50;;
1402;SDS011;696;48.546;9.896;2022-08-11T13:47:57;2.75;;;0.90;;
1402;SDS011;696;48.546;9.896;2022-08-11T13:50:24;0.60;;;0.57;;
1402;SDS011;696;48.546;9.896;2022-08-11T13:53:10;1.02;;;0.70;;
1402;SDS011;696;48.546;9.896;2022-08-11T13:55:37;0.63;;;0.35;;
1402;SDS011;696;48.546;9.896;2022-08-11T13:58:03;1.45;;;0.93;;
1402;SDS011;696;48.546;9.896;2022-08-11T14:00:29;0.70;;;0.70;;
1402;SDS011;696;48.546;9.896;2022-08-11T14:02:55;1.35;;;0.63;;
1402;SDS011;696;48.546;9.896;2022-08-11T14:05:25;1.42;;;0.60;;
1402;SDS011;696;48.546;9.896;2022-08-11T14:08:02;1.60;;;0.65;;
1402;SDS011;696;48.546;9.896;2022-08-11T14:10:30;0.60;;;0.60;;
1402;SDS011;696;48.546;9.896;2022-08-11T14:13:02;0.52;;;0.52;;
1402;SDS011;696;48.546;9.896;2022-08-11T14:15:50;0.93;;;0.80;;
1402;SDS011;696;48.546;9.896;2022-08-11T14:18:17;1.30;;;0.75;;
1402;SDS011;696;48.546;9.896;2022-08-11T14:20:46;1.73;;;0.85;;
1402;SDS011;696;48.546;9.896;2022-08-11T14:23:41;0.50;;;0.50;;
1402;SDS011;696;48.546;9.896;2022-08-11T14:26:09;0.60;;;0.50;;
1402;SDS011;696;48.546;9.896;2022-08-11T14:31:24;7.45;;;0.70;;
1402;SDS011;696;48.546;9.896;2022-08-11T14:33:54;1.13;;;0.80;;
1402;SDS011;696;48.546;9.896;2022-08-11T14:36:21;1.05;;;0.82;;
1402;SDS011;696;48.546;9.896;2022-08-11T14:38:48;8.30;;;0.60;;
1402;SDS011;696;48.546;9.896;2022-08-11T14:41:13;0.95;;;0.68;;
1402;SDS011;696;48.546;9.896;2022-08-11T14:43:57;0.65;;;0.40;;
1402;SDS011;696;48.546;9.896;2022-08-11T14:46:41;5.63;;;0.73;;
1402;SDS011;696;48.546;9.896;2022-08-11T14:49:26;0.50;;;0.50;;
1402;SDS011;696;48.546;9.896;2022-08-11T14:51:52;3.58;;;0.77;;
1402;SDS011;696;48.546;9.896;2022-08-11T14:54:25;0.60;;;0.50;;
1402;SDS011;696;48.546;9.896;2022-08-11T14:57:10;1.38;;;0.75;;
1402;SDS011;696;48.546;9.896;2022-08-11T14:59:37;1.30;;;0.70;;
1402;SDS011;696;48.546;9.896;2022-08-11T15:02:03;0.85;;;0.50;;
1402;SDS011;696;48.546;9.896;2022-08-11T15:04:48;0.80;;;0.68;;
1402;SDS011;696;48.546;9.896;2022-08-11T15:07:14;0.40;;;0.40;;
1402;SDS011;696;48.546;9.896;2022-08-11T15:09:41;0.93;;;0.70;;
1402;SDS011;696;48.546;9.896;2022-08-11T15:12:08;0.73;;;0.55;;
1402;SDS011;696;48.546;9.896;2022-08-11T15:14:41;1.60;;;0.87;;
1402;SDS011;696;48.546;9.896;2022-08-11T15:17:30;1.23;;;0.98;;
1402;SDS011;696;48.546;9.896;2022-08-11T15:19:57;0.70;;;0.50;;
1402;SDS011;696;48.546;9.896;2022-08-11T15:22:43;1.33;;;0.73;;
1402;SDS011;696;48.546;9.896;2022-08-11T15:25:27;1.63;;;0.80;;
1402;SDS011;696;48.546;9.896;2022-08-11T15:27:53;1.27;;;0.40;;
1402;SDS011;696;48.546;9.896;2022-08-11T15:30:38;0.40;;;0.40;;
1402;SDS011;696;48.546;9.896;2022-08-11T15:33:22;0.60;;;0.50;;
1402;SDS011;696;48.546;9.896;2022-08-11T15:36:10;2.60;;;0.88;;
1402;SDS011;696;48.546;9.896;2022-08-11T15:38:57;5.43;;;1.10;;
1402;SDS011;696;48.546;9.896;2022-08-11T15:41:35;0.30;;;0.30;;
1402;SDS011;696;48.546;9.896;2022-08-11T15:44:29;0.98;;;0.57;;
1402;SDS011;696;48.546;9.896;2022-08-11T15:47:14;0.63;;;0.63;;
1402;SDS011;696;48.546;9.896;2022-08-11T15:49:43;0.85;;;0.60;;
1402;SDS011;696;48.546;9.896;2022-08-11T15:52:09;1.73;;;0.40;;
1402;SDS011;696;48.546;9.896;2022-08-11T15:54:40;2.63;;;0.70;;
1402;SDS011;696;48.546;9.896;2022-08-11T15:57:06;0.30;;;0.30;;
1402;SDS011;696;48.546;9.896;2022-08-11T15:59:33;0.57;;;0.57;;
1402;SDS011;696;48.546;9.896;2022-08-11T16:02:20;1.40;;;0.60;;
1402;SDS011;696;48.546;9.896;2022-08-11T16:05:07;2.25;;;0.70;;
1402;SDS011;696;48.546;9.896;2022-08-11T16:07:34;0.63;;;0.45;;
1402;SDS011;696;48.546;9.896;2022-08-11T16:12:31;0.68;;;0.40;;
1402;SDS011;696;48.546;9.896;2022-08-11T16:15:01;1.27;;;0.63;;
1402;SDS011;696;48.546;9.896;2022-08-11T16:17:51;1.45;;;0.80;;
1402;SDS011;696;48.546;9.896;2022-08-11T16:20:26;1.65;;;0.70;;
1402;SDS011;696;48.546;9.896;2022-08-11T16:22:55;0.63;;;0.45;;
1402;SDS011;696;48.546;9.896;2022-08-11T16:25:22;0.65;;;0.43;;
1402;SDS011;696;48.546;9.896;2022-08-11T16:27:54;0.60;;;0.60;;
1402;SDS011;696;48.546;9.896;2022-08-11T16:30:23;0.75;;;0.63;;
1402;SDS011;696;48.546;9.896;2022-08-11T16:32:50;0.68;;;0.38;;
1402;SDS011;696;48.546;9.896;2022-08-11T16:35:17;0.50;;;0.50;;
1402;SDS011;696;48.546;9.896;2022-08-11T16:38:03;0.63;;;0.60;;
1402;SDS011;696;48.546;9.896;2022-08-11T16:40:48;1.45;;;0.50;;
1402;SDS011;696;48.546;9.896;2022-08-11T16:43:16;0.50;;;0.50;;
1402;SDS011;696;48.546;9.896;2022-08-11T16:46:03;0.88;;;0.70;;
1402;SDS011;696;48.546;9.896;2022-08-11T16:48:47;0.85;;;0.45;;
1402;SDS011;696;48.546;9.896;2022-08-11T16:51:13;1.38;;;0.70;;
1402;SDS011;696;48.546;9.896;2022-08-11T16:53:39;0.98;;;0.68;;
1402;SDS011;696;48.546;9.896;2022-08-11T16:56:08;3.53;;;0.80;;
1402;SDS011;696;48.546;9.896;2022-08-11T16:58:42;3.50;;;0.57;;
1402;SDS011;696;48.546;9.896;2022-08-11T17:01:26;0.73;;;0.50;;
1402;SDS011;696;48.546;9.896;2022-08-11T17:03:57;0.80;;;0.60;;
1402;SDS011;696;48.546;9.896;2022-08-11T17:06:43;1.00;;;0.73;;
1402;SDS011;696;48.546;9.896;2022-08-11T17:09:29;0.88;;;0.55;;
1402;SDS011;696;48.546;9.896;2022-08-11T17:12:15;0.57;;;0.57;;
1402;SDS011;696;48.546;9.896;2022-08-11T17:15:02;0.88;;;0.65;;
1402;SDS011;696;48.546;9.896;2022-08-11T17:17:50;0.50;;;0.40;;
1402;SDS011;696;48.546;9.896;2022-08-11T17:20:16;1.02;;;0.80;;
1402;SDS011;696;48.546;9.896;2022-08-11T17:22:43;1.52;;;0.90;;
1402;SDS011;696;48.546;9.896;2022-08-11T17:25:27;2.22;;;0.95;;
1402;SDS011;696;48.546;9.896;2022-08-11T17:27:56;0.47;;;0.47;;
1402;SDS011;696;48.546;9.896;2022-08-11T17:30:24;0.47;;;0.47;;
1402;SDS011;696;48.546;9.896;2022-08-11T17:33:10;1.08;;;0.77;;
1402;SDS011;696;48.546;9.896;2022-08-11T17:35:54;2.78;;;0.98;;
1402;SDS011;696;48.546;9.896;2022-08-11T17:38:20;0.63;;;0.57;;
1402;SDS011;696;48.546;9.896;2022-08-11T17:40:52;2.40;;;0.77;;
1402;SDS011;696;48.546;9.896;2022-08-11T17:43:37;2.25;;;1.23;;
1402;SDS011;696;48.546;9.896;2022-08-11T17:46:23;0.70;;;0.60;;
1402;SDS011;696;48.546;9.896;2022-08-11T17:49:08;1.10;;;0.63;;
1402;SDS011;696;48.546;9.896;2022-08-11T17:51:35;3.83;;;1.02;;
1402;SDS011;696;48.546;9.896;2022-08-11T17:54:20;0.70;;;0.60;;
1402;SDS011;696;48.546;9.896;2022-08-11T17:57:04;1.45;;;0.82;;
1402;SDS011;696;48.546;9.896;2022-08-11T17:59:49;0.90;;;0.40;;
1402;SDS011;696;48.546;9.896;2022-08-11T18:02:22;1.50;;;0.55;;
1402;SDS011;696;48.546;9.896;2022-08-11T18:05:09;0.57;;;0.50;;
1402;SDS011;696;48.546;9.896;2022-08-11T18:07:36;0.80;;;0.63;;
1402;SDS011;696;48.546;9.896;2022-08-11T18:10:21;0.73;;;0.45;;
1402;SDS011;696;48.546;9.896;2022-08-11T18:13:05;0.95;;;0.63;;
1402;SDS011;696;48.546;9.896;2022-08-11T18:15:49;0.38;;;0.38;;
1402;SDS011;696;48.546;9.896;2022-08-11T18:18:33;1.30;;;0.47;;
1402;SDS011;696;48.546;9.896;2022-08-11T18:21:17;0.50;;;0.50;;
1402;SDS011;696;48.546;9.896;2022-08-11T18:24:09;0.73;;;0.47;;
1402;SDS011;696;48.546;9.896;2022-08-11T18:26:56;2.35;;;0.73;;
1402;SDS011;696;48.546;9.896;2022-08-11T18:29:41;0.82;;;0.60;;
1402;SDS011;696;48.546;9.896;2022-08-11T18:32:30;0.82;;;0.70;;
1402;SDS011;696;48.546;9.896;2022-08-11T18:35:14;2.47;;;1.02;;
1402;SDS011;696;48.546;9.896;2022-08-11T18:38:00;0.80;;;0.80;;
1402;SDS011;696;48.546;9.896;2022-08-11T18:40:46;0.50;;;0.50;;
1402;SDS011;696;48.546;9.896;2022-08-11T18:43:31;1.70;;;1.13;;
1402;SDS011;696;48.546;9.896;2022-08-11T18:46:15;0.93;;;0.75;;
1402;SDS011;696;48.546;9.896;2022-08-11T18:49:01;0.80;;;0.80;;
1402;SDS011;696;48.546;9.896;2022-08-11T18:51:51;0.70;;;0.70;;
1402;SDS011;696;48.546;9.896;2022-08-11T18:54:36;2.72;;;0.70;;
1402;SDS011;696;48.546;9.896;2022-08-11T18:57:23;0.82;;;0.73;;
1402;SDS011;696;48.546;9.896;2022-08-11T19:00:07;0.63;;;0.57;;
1402;SDS011;696;48.546;9.896;2022-08-11T19:02:52;2.03;;;1.20;;
1402;SDS011;696;48.546;9.896;2022-08-11T19:05:38;1.05;;;0.70;;
1402;SDS011;696;48.546;9.896;2022-08-11T19:08:23;0.32;;;0.32;;
1402;SDS011;696;48.546;9.896;2022-08-11T19:11:13;0.75;;;0.75;;
1402;SDS011;696;48.546;9.896;2022-08-11T19:13:57;2.75;;;1.08;;
1402;SDS011;696;48.546;9.896;2022-08-11T19:16:43;1.95;;;1.30;;
1402;SDS011;696;48.546;9.896;2022-08-11T19:19:28;3.03;;;0.98;;
1402;SDS011;696;48.546;9.896;2022-08-11T19:22:13;3.42;;;0.85;;
1402;SDS011;696;48.546;9.896;2022-08-11T19:24:59;1.52;;;0.93;;
1402;SDS011;696;48.546;9.896;2022-08-11T19:27:44;2.50;;;0.80;;
1402;SDS011;696;48.546;9.896;2022-08-11T19:30:29;1.10;;;0.80;;
1402;SDS011;696;48.546;9.896;2022-08-11T19:33:14;1.67;;;1.10;;
1402;SDS011;696;48.546;9.896;2022-08-11T19:35:58;0.50;;;0.50;;
1402;SDS011;696;48.546;9.896;2022-08-11T19:38:43;12.50;;;1.33;;
1402;SDS011;696;48.546;9.896;2022-08-11T19:41:27;2.75;;;1.50;;
1402;SDS011;696;48.546;9.896;2022-08-11T19:44:12;0.70;;;0.60;;
1402;SDS011;696;48.546;9.896;2022-08-11T19:46:58;1.83;;;0.55;;
1402;SDS011;696;48.546;9.896;2022-08-11T19:49:43;1.77;;;0.77;;
1402;SDS011;696;48.546;9.896;2022-08-11T19:52:27;1.08;;;0.90;;
1402;SDS011;696;48.546;9.896;2022-08-11T19:55:11;0.93;;;0.80;;
1402;SDS011;696;48.546;9.896;2022-08-11T19:57:57;9.73;;;1.48;;
1402;SDS011;696;48.546;9.896;2022-08-11T20:00:41;1.63;;;0.88;;
1402;SDS011;696;48.546;9.896;2022-08-11T20:03:25;0.57;;;0.57;;
1402;SDS011;696;48.546;9.896;2022-08-11T20:06:09;1.73;;;0.88;;
1402;SDS011;696;48.546;9.896;2022-08-11T20:08:55;3.67;;;0.90;;
1402;SDS011;696;48.546;9.896;2022-08-11T20:11:43;1.00;;;0.80;;
1402;SDS011;696;48.546;9.896;2022-08-11T20:14:31;1.17;;;1.00;;